createdAt,value
2022-10-01T00:02:00.154Z,87.35
2022-10-01T00:04:28.387Z,87.85
2022-10-01T00:07:04.544Z,87.38
2022-10-01T00:09:34.503Z,87.79
2022-10-01T00:12:02.870Z,87.50
2022-10-01T00:14:30.599Z,85.80
2022-10-01T00:16:58.492Z,85.35
2022-10-01T00:19:26.322Z,86.91
2022-10-01T00:21:54.196Z,86.20
2022-10-01T00:24:23.791Z,85.88
2022-10-01T00:26:51.448Z,86.77
2022-10-01T00:29:19.244Z,87.70
2022-10-01T00:31:46.956Z,87.59
2022-10-01T00:34:15.012Z,85.29
2022-10-01T00:36:43.272Z,86.36
2022-10-01T00:39:11.716Z,85.87
2022-10-01T00:41:40.952Z,87.87
2022-10-01T00:44:32.300Z,89.40
2022-10-01T00:47:05.722Z,87.68
2022-10-01T00:49:37.745Z,86.93
2022-10-01T00:52:09.911Z,86.32
2022-10-01T00:54:44.452Z,85.42
2022-10-01T00:57:17.553Z,85.57
2022-10-01T00:59:49.562Z,85.42
2022-10-01T01:02:17.339Z,86.35
2022-10-01T01:04:45.332Z,84.93
2022-10-01T01:07:13.857Z,83.80
2022-10-01T01:09:46.445Z,83.88
2022-10-01T01:12:28.288Z,84.23
2022-10-01T01:15:15.056Z,83.71
2022-10-01T01:17:52.355Z,84.17
2022-10-01T01:20:37.721Z,84.28
2022-10-01T01:23:13.911Z,84.03
2022-10-01T01:25:49.065Z,85.75
2022-10-01T01:28:25.192Z,86.20
2022-10-01T01:30:59.340Z,86.00
2022-10-01T01:33:30.875Z,84.90
2022-10-01T01:36:04.484Z,85.02
2022-10-01T01:38:37.294Z,85.80
2022-10-01T01:41:09.350Z,85.15
2022-10-01T01:43:42.017Z,84.48
2022-10-01T01:46:11.979Z,86.11
2022-10-01T01:48:41.944Z,85.29
2022-10-01T01:51:15.783Z,86.00
2022-10-01T01:53:44.056Z,84.73
2022-10-01T01:56:11.864Z,84.45
2022-10-01T01:58:41.219Z,83.81
2022-10-01T02:01:09.859Z,84.53
2022-10-01T02:03:37.720Z,84.27
2022-10-01T02:06:16.834Z,83.54
2022-10-01T02:08:49.646Z,84.51
2022-10-01T02:11:24.885Z,84.46
2022-10-01T02:14:04.281Z,84.18
2022-10-01T02:16:39.670Z,84.10
2022-10-01T02:19:19.397Z,81.92
2022-10-01T02:21:57.086Z,83.14
2022-10-01T02:24:37.523Z,82.23
2022-10-01T02:27:12.349Z,82.03
2022-10-01T02:29:44.441Z,83.06
2022-10-01T02:32:13.408Z,82.61
2022-10-01T02:34:43.288Z,83.07
2022-10-01T02:37:12.667Z,81.11
2022-10-01T02:39:42.558Z,80.10
2022-10-01T02:42:14.151Z,79.93
2022-10-01T02:44:46.557Z,79.92
2022-10-01T02:47:19.487Z,79.26
2022-10-01T02:49:48.291Z,80.10
2022-10-01T02:52:27.136Z,79.16
2022-10-01T02:54:59.639Z,78.71
2022-10-01T02:57:27.816Z,78.19
2022-10-01T02:59:59.705Z,77.91
2022-10-01T03:02:28.727Z,78.37
2022-10-01T03:04:57.500Z,78.08
2022-10-01T03:07:28.949Z,77.97
2022-10-01T03:09:59.322Z,78.08
2022-10-01T03:12:27.579Z,78.09
2022-10-01T03:14:58.904Z,77.31
2022-10-01T03:17:29.184Z,76.79
2022-10-01T03:19:56.902Z,77.13
2022-10-01T03:22:24.953Z,76.82
2022-10-01T03:24:53.640Z,77.54
2022-10-01T03:27:22.587Z,77.95
2022-10-01T03:29:50.432Z,77.85
2022-10-01T03:32:20.254Z,77.33
2022-10-01T03:34:47.943Z,77.22
2022-10-01T03:37:15.712Z,76.85
2022-10-01T03:39:45.795Z,76.67
2022-10-01T03:42:13.469Z,76.80
2022-10-01T03:44:41.166Z,77.76
2022-10-01T03:47:09.696Z,77.78
2022-10-01T03:49:39.072Z,76.88
2022-10-01T03:52:07.563Z,77.17
2022-10-01T03:54:35.266Z,76.88
2022-10-01T03:57:02.967Z,76.51
2022-10-01T03:59:30.651Z,76.13
2022-10-01T04:01:58.465Z,75.95
2022-10-01T04:04:28.903Z,76.05
2022-10-01T04:06:57.943Z,76.06
2022-10-01T04:09:25.948Z,75.57
2022-10-01T04:11:53.645Z,75.60
2022-10-01T04:14:21.301Z,75.61
2022-10-01T04:16:50.605Z,75.58
2022-10-01T04:19:18.344Z,75.50
2022-10-01T04:21:46.147Z,76.19
2022-10-01T04:24:15.377Z,76.47
2022-10-01T04:26:45.496Z,76.87
2022-10-01T04:29:13.161Z,77.55
2022-10-01T04:31:40.922Z,78.63
2022-10-01T04:34:08.929Z,78.17
2022-10-01T04:36:36.600Z,79.54
2022-10-01T04:39:06.425Z,79.19
2022-10-01T04:41:35.713Z,78.36
2022-10-01T04:44:04.153Z,77.50
2022-10-01T04:46:32.141Z,76.45
2022-10-01T04:49:02.129Z,76.40
2022-10-01T04:51:29.820Z,77.05
2022-10-01T04:53:57.712Z,75.79
2022-10-01T04:56:25.436Z,76.15
2022-10-01T04:58:54.480Z,75.89
2022-10-01T05:01:22.262Z,75.91
2022-10-01T05:03:50.084Z,75.76
2022-10-01T05:06:17.816Z,75.64
2022-10-01T05:08:45.471Z,75.66
2022-10-01T05:11:13.144Z,75.54
2022-10-01T05:13:41.602Z,76.19
2022-10-01T05:16:11.725Z,75.06
2022-10-01T05:18:40.525Z,75.31
2022-10-01T05:21:11.735Z,74.72
2022-10-01T05:23:39.789Z,74.80
2022-10-01T05:26:10.444Z,74.17
2022-10-01T05:28:43.208Z,74.61
2022-10-01T05:31:13.230Z,75.33
2022-10-01T05:33:41.955Z,75.11
2022-10-01T05:36:11.969Z,75.86
2022-10-01T05:38:39.671Z,75.94
2022-10-01T05:41:07.522Z,74.63
2022-10-01T05:43:36.348Z,74.45
2022-10-01T05:46:06.775Z,73.42
2022-10-01T05:48:36.798Z,73.36
2022-10-01T05:51:08.333Z,73.81
2022-10-01T05:53:38.041Z,74.18
2022-10-01T05:56:06.527Z,73.78
2022-10-01T05:58:34.931Z,74.41
2022-10-01T06:01:04.028Z,74.58
2022-10-01T06:03:31.939Z,75.04
2022-10-01T06:06:01.388Z,74.53
2022-10-01T06:08:29.101Z,75.52
2022-10-01T06:11:00.759Z,77.99
2022-10-01T06:13:29.219Z,77.67
2022-10-01T06:15:57.461Z,79.10
2022-10-01T06:18:25.158Z,80.33
2022-10-01T06:20:52.839Z,79.09
2022-10-01T06:23:21.836Z,81.13
2022-10-01T06:25:49.785Z,80.52
2022-10-01T06:28:19.912Z,80.03
2022-10-01T06:30:47.681Z,79.81
2022-10-01T06:33:18.011Z,79.72
2022-10-01T06:35:47.736Z,79.76
2022-10-01T06:38:16.564Z,79.96
2022-10-01T06:40:45.736Z,81.88
2022-10-01T06:43:13.678Z,82.37
2022-10-01T06:45:42.436Z,80.72
2022-10-01T06:48:14.030Z,80.46
2022-10-01T06:50:43.200Z,81.20
2022-10-01T06:53:10.194Z,81.20
2022-10-01T06:55:38.771Z,81.52
2022-10-01T06:58:09.657Z,80.57
2022-10-01T07:00:39.039Z,79.33
2022-10-01T07:03:10.687Z,80.57
2022-10-01T07:05:38.786Z,81.67
2022-10-01T07:08:07.836Z,81.42
2022-10-01T07:10:36.427Z,81.20
2022-10-01T07:13:10.249Z,81.00
2022-10-01T07:15:38.280Z,81.39
2022-10-01T07:18:08.577Z,80.73
2022-10-01T07:20:39.546Z,80.51
2022-10-01T07:23:08.781Z,80.17
2022-10-01T07:25:38.596Z,81.50
2022-10-01T07:28:15.947Z,82.40
2022-10-01T07:30:44.003Z,81.25
2022-10-01T07:33:11.970Z,81.75
2022-10-01T07:35:39.681Z,81.34
2022-10-01T07:38:08.063Z,81.06
2022-10-01T07:40:35.906Z,81.76
2022-10-01T07:43:03.591Z,83.20
2022-10-01T07:45:35.275Z,83.06
2022-10-01T07:48:04.394Z,83.45
2022-10-01T07:50:32.165Z,85.08
2022-10-01T07:53:00.839Z,83.73
2022-10-01T07:55:32.703Z,83.65
2022-10-01T07:58:01.426Z,84.16
2022-10-01T08:00:31.115Z,82.65
2022-10-01T08:03:00.201Z,83.76
2022-10-01T08:05:32.343Z,83.48
2022-10-01T08:08:01.443Z,83.54
2022-10-01T08:10:30.525Z,84.33
2022-10-01T08:13:01.909Z,84.98
2022-10-01T08:15:29.856Z,85.31
2022-10-01T08:17:57.580Z,84.90
2022-10-01T08:20:26.647Z,84.49
2022-10-01T08:22:54.448Z,86.93
2022-10-01T08:25:22.094Z,86.33
2022-10-01T08:27:49.860Z,85.99
2022-10-01T08:30:19.684Z,85.25
2022-10-01T08:32:47.572Z,85.46
2022-10-01T08:35:18.090Z,85.31
2022-10-01T08:37:47.114Z,85.95
2022-10-01T08:40:15.317Z,86.07
2022-10-01T08:42:52.470Z,86.31
2022-10-01T08:45:26.500Z,85.65
2022-10-01T08:48:02.949Z,85.12
2022-10-01T08:50:41.045Z,86.34
2022-10-01T08:53:15.523Z,86.42
2022-10-01T08:55:44.826Z,86.20
2022-10-01T08:58:19.779Z,87.52
2022-10-01T09:00:50.971Z,87.72
2022-10-01T09:03:19.632Z,88.10
2022-10-01T09:05:58.190Z,86.94
2022-10-01T09:08:46.148Z,86.75
2022-10-01T09:11:21.969Z,86.41
2022-10-01T09:14:06.733Z,86.85
2022-10-01T09:16:43.580Z,87.45
2022-10-01T09:19:26.540Z,86.87
2022-10-01T09:21:58.198Z,88.56
2022-10-01T09:24:42.164Z,88.17
2022-10-01T09:27:14.808Z,90.17
2022-10-01T09:29:48.624Z,87.83
2022-10-01T09:32:20.886Z,88.75
2022-10-01T09:34:48.998Z,88.90
2022-10-01T09:37:26.795Z,88.86
2022-10-01T09:40:05.666Z,90.22
2022-10-01T09:42:33.981Z,89.95
2022-10-01T09:45:01.708Z,89.81
2022-10-01T09:47:29.567Z,89.83
2022-10-01T09:50:01.158Z,91.18
2022-10-01T09:52:34.505Z,91.27
2022-10-01T09:55:10.474Z,89.93
2022-10-01T09:57:43.164Z,90.36
2022-10-01T10:00:18.352Z,91.23
2022-10-01T10:02:50.015Z,90.91
2022-10-01T10:05:20.753Z,89.87
2022-10-01T10:07:52.667Z,90.10
2022-10-01T10:10:26.067Z,90.19
2022-10-01T10:13:00.061Z,90.11
2022-10-01T10:15:31.243Z,89.67
2022-10-01T10:18:07.790Z,88.24
2022-10-01T10:20:40.305Z,87.81
2022-10-01T10:23:10.187Z,89.53
2022-10-01T10:25:39.288Z,89.08
2022-10-01T10:28:20.347Z,89.68
2022-10-01T10:30:48.939Z,90.33
2022-10-01T10:33:18.153Z,90.81
2022-10-01T10:35:45.992Z,91.64
2022-10-01T10:38:18.895Z,89.65
2022-10-01T10:40:51.093Z,91.25
2022-10-01T10:43:22.683Z,92.25
2022-10-01T10:45:56.198Z,92.22
2022-10-01T10:48:28.946Z,91.65
2022-10-01T10:51:00.971Z,92.37
2022-10-01T10:53:33.527Z,91.70
2022-10-01T10:56:05.799Z,92.63
2022-10-01T10:58:37.926Z,91.80
2022-10-01T11:01:09.104Z,91.25
2022-10-01T11:03:42.486Z,91.88
2022-10-01T11:06:13.024Z,91.56
2022-10-01T11:08:45.727Z,92.63
2022-10-01T11:11:32.285Z,91.97
2022-10-01T11:14:13.181Z,90.77
2022-10-01T11:16:54.073Z,91.16
2022-10-01T11:19:39.924Z,89.25
2022-10-01T11:22:20.888Z,88.82
2022-10-01T11:25:10.453Z,89.01
2022-10-01T11:27:49.464Z,89.64
2022-10-01T11:30:24.794Z,89.69
2022-10-01T11:33:03.438Z,89.02
2022-10-01T11:35:50.148Z,89.91
2022-10-01T11:38:37.749Z,89.16
2022-10-01T11:41:16.031Z,90.79
2022-10-01T11:43:50.596Z,89.26
2022-10-01T11:46:28.393Z,89.37
2022-10-01T11:49:02.675Z,87.46
2022-10-01T11:51:35.634Z,86.68
2022-10-01T11:54:08.317Z,87.38
2022-10-01T11:56:58.856Z,87.56
2022-10-01T11:59:36.915Z,87.62
2022-10-01T12:02:15.769Z,87.69
2022-10-01T12:04:49.629Z,87.54
2022-10-01T12:07:23.304Z,88.60
2022-10-01T12:10:00.879Z,88.16
2022-10-01T12:12:34.445Z,89.05
2022-10-01T12:15:10.886Z,88.70
2022-10-01T12:17:45.300Z,87.41
2022-10-01T12:20:24.126Z,87.16
2022-10-01T12:22:56.261Z,86.71
2022-10-01T12:25:30.786Z,86.17
2022-10-01T12:28:07.518Z,86.06
2022-10-01T12:30:43.728Z,86.02
2022-10-01T12:33:32.114Z,86.40
2022-10-01T12:36:10.963Z,85.65
2022-10-01T12:38:52.029Z,85.02
2022-10-01T12:41:32.278Z,84.97
2022-10-01T12:44:28.431Z,84.32
2022-10-01T12:47:11.268Z,84.59
2022-10-01T12:49:44.807Z,84.79
2022-10-01T12:52:21.145Z,83.56
2022-10-01T12:55:07.007Z,82.67
2022-10-01T12:57:45.765Z,84.06
2022-10-01T13:00:18.955Z,82.96
2022-10-01T13:03:18.862Z,82.34
2022-10-01T13:06:01.305Z,81.77
2022-10-01T13:08:47.808Z,80.72
2022-10-01T13:11:28.145Z,81.34
2022-10-01T13:13:57.407Z,81.38
2022-10-01T13:16:33.689Z,81.00
2022-10-01T13:19:08.144Z,83.31
2022-10-01T13:21:52.691Z,81.33
2022-10-01T13:24:29.264Z,82.26
2022-10-01T13:27:03.395Z,80.97
2022-10-01T13:29:44.931Z,81.04
2022-10-01T13:32:32.200Z,80.68
2022-10-01T13:35:03.666Z,81.20
2022-10-01T13:37:38.203Z,80.22
2022-10-01T13:40:22.988Z,78.70
2022-10-01T13:42:52.847Z,78.01
2022-10-01T13:45:29.064Z,77.89
2022-10-01T13:48:16.813Z,78.08
2022-10-01T13:50:58.972Z,77.45
2022-10-01T13:53:29.727Z,76.89
2022-10-01T13:55:58.725Z,76.43
2022-10-01T13:58:35.556Z,76.91
2022-10-01T14:01:06.021Z,76.34
2022-10-01T14:03:43.769Z,75.81
2022-10-01T14:06:19.366Z,75.29
2022-10-01T14:08:52.461Z,75.72
2022-10-01T14:11:44.286Z,74.31
2022-10-01T14:14:32.752Z,74.15
2022-10-01T14:17:03.348Z,73.97
2022-10-01T14:19:32.129Z,73.69
2022-10-01T14:22:43.797Z,72.98
2022-10-01T14:25:39.507Z,72.50
2022-10-01T14:28:28.151Z,73.30
2022-10-01T14:31:06.825Z,73.21
2022-10-01T14:34:00.223Z,73.12
2022-10-01T14:36:34.936Z,72.15
2022-10-01T14:39:14.914Z,70.28
2022-10-01T14:41:44.524Z,72.88
2022-10-01T14:44:25.572Z,71.85
2022-10-01T14:46:54.892Z,72.04
2022-10-01T14:49:25.940Z,72.12
2022-10-01T14:51:59.687Z,71.34
2022-10-01T14:54:28.406Z,71.25
2022-10-01T14:57:00.281Z,71.63
2022-10-01T14:59:36.015Z,71.50
2022-10-01T15:02:18.486Z,70.88
2022-10-01T15:04:47.860Z,72.17
2022-10-01T15:07:17.186Z,71.86
2022-10-01T15:09:45.282Z,71.16
2022-10-01T15:12:18.823Z,72.62
2022-10-01T15:14:47.961Z,72.03
2022-10-01T15:17:22.287Z,70.99
2022-10-01T15:19:52.794Z,71.80
2022-10-01T15:22:25.120Z,72.65
2022-10-01T15:24:56.945Z,72.16
2022-10-01T15:27:26.700Z,72.39
2022-10-01T15:29:58.643Z,73.28
2022-10-01T15:32:29.514Z,72.11
2022-10-01T15:34:59.080Z,72.42
2022-10-01T15:37:32.084Z,72.15
2022-10-01T15:40:01.664Z,71.96
2022-10-01T15:42:35.239Z,72.62
2022-10-01T15:45:23.268Z,71.67
2022-10-01T15:47:52.201Z,73.01
2022-10-01T15:50:22.282Z,72.44
2022-10-01T15:52:57.851Z,72.66
2022-10-01T15:55:31.661Z,73.48
2022-10-01T15:58:06.874Z,73.40
2022-10-01T16:00:43.501Z,73.21
2022-10-01T16:03:23.225Z,74.33
2022-10-01T16:05:56.024Z,73.78
2022-10-01T16:08:32.795Z,73.32
2022-10-01T16:11:20.909Z,73.71
2022-10-01T16:13:52.878Z,72.91
2022-10-01T16:16:26.971Z,73.11
2022-10-01T16:18:59.286Z,72.28
2022-10-01T16:21:39.023Z,73.72
2022-10-01T16:24:28.397Z,73.56
2022-10-01T16:27:00.245Z,72.57
2022-10-01T16:29:29.813Z,73.22
2022-10-01T16:31:57.751Z,74.38
2022-10-01T16:34:27.481Z,74.58
2022-10-01T16:36:55.193Z,73.54
2022-10-01T16:39:25.239Z,74.66
2022-10-01T16:42:19.164Z,73.88
2022-10-01T16:44:44.136Z,73.76
2022-10-01T16:47:13.229Z,74.07
2022-10-01T16:49:43.357Z,73.53
2022-10-01T16:52:14.208Z,74.18
2022-10-01T16:54:42.015Z,74.37
2022-10-01T16:57:11.190Z,73.52
2022-10-01T16:59:39.199Z,74.52
2022-10-01T17:02:12.673Z,74.41
2022-10-01T17:04:40.965Z,74.04
2022-10-01T17:07:08.761Z,73.91
2022-10-01T17:09:38.517Z,73.47
2022-10-01T17:12:06.211Z,74.82
2022-10-01T17:14:33.882Z,75.24
2022-10-01T17:17:01.582Z,75.52
2022-10-01T17:19:30.626Z,75.70
2022-10-01T17:21:58.303Z,75.68
2022-10-01T17:24:26.180Z,75.06
2022-10-01T17:26:54.442Z,75.16
2022-10-01T17:29:22.110Z,75.52
2022-10-01T17:31:53.249Z,74.72
2022-10-01T17:34:21.983Z,75.34
2022-10-01T17:36:51.704Z,75.41
2022-10-01T17:39:19.352Z,75.29
2022-10-01T17:41:47.127Z,75.76
2022-10-01T17:44:14.967Z,75.88
2022-10-01T17:46:42.965Z,76.48
2022-10-01T17:49:10.649Z,75.99
2022-10-01T17:51:38.536Z,77.04
2022-10-01T17:54:10.118Z,77.85
2022-10-01T17:56:38.762Z,78.55
2022-10-01T17:59:06.513Z,78.72
2022-10-01T18:01:34.308Z,79.04
2022-10-01T18:04:03.894Z,79.96
2022-10-01T18:06:31.690Z,80.19
2022-10-01T18:09:00.353Z,79.84
2022-10-01T18:11:29.987Z,79.95
2022-10-01T18:13:57.775Z,81.18
2022-10-01T18:16:26.337Z,80.34
2022-10-01T18:21:46.874Z,79.78
2022-10-01T18:24:17.414Z,80.85
2022-10-01T18:26:46.984Z,79.77
2022-10-01T18:29:19.102Z,80.11
2022-10-01T18:31:47.204Z,79.00
2022-10-01T18:34:23.473Z,77.44
2022-10-01T18:36:56.889Z,80.42
2022-10-01T18:39:32.636Z,79.96
2022-10-01T18:42:04.621Z,81.33
2022-10-01T18:44:32.321Z,81.92
2022-10-01T18:47:14.772Z,81.23
2022-10-01T18:50:19.073Z,83.24
2022-10-01T18:53:00.175Z,84.66
2022-10-01T18:55:40.249Z,87.28
2022-10-01T18:58:26.564Z,86.32
2022-10-01T19:01:02.878Z,87.83
2022-10-01T19:04:00.494Z,87.09
2022-10-01T19:06:52.855Z,89.85
2022-10-01T19:09:30.870Z,89.79
2022-10-01T19:12:10.747Z,89.52
2022-10-01T19:14:52.095Z,90.05
2022-10-01T19:17:45.671Z,89.71
2022-10-01T19:20:26.493Z,88.71
2022-10-01T19:23:16.206Z,89.41
2022-10-01T19:25:51.143Z,89.91
2022-10-01T19:28:35.469Z,89.00
2022-10-01T19:31:13.897Z,88.27
2022-10-01T19:33:47.697Z,90.21
2022-10-01T19:36:24.430Z,89.45
2022-10-01T19:38:54.364Z,89.91
2022-10-01T19:41:38.732Z,90.98
2022-10-01T19:44:14.756Z,89.11
2022-10-01T19:46:47.296Z,88.97
2022-10-01T19:49:21.742Z,89.09
2022-10-01T19:51:56.981Z,89.51
2022-10-01T19:54:30.251Z,88.20
2022-10-01T19:57:04.294Z,88.16
2022-10-01T19:59:32.042Z,88.57
2022-10-01T20:02:06.224Z,88.43
2022-10-01T20:04:39.075Z,87.86
2022-10-01T20:07:12.596Z,87.41
2022-10-01T20:09:45.626Z,85.89
2022-10-01T20:12:24.305Z,84.72
2022-10-01T20:15:09.670Z,85.77
2022-10-01T20:17:51.273Z,85.86
2022-10-01T20:20:24.734Z,85.92
2022-10-01T20:23:08.135Z,86.94
2022-10-01T20:25:44.849Z,86.47
2022-10-01T20:28:20.757Z,85.12
2022-10-01T20:30:59.560Z,85.36
2022-10-01T20:33:42.944Z,85.88
2022-10-01T20:36:18.635Z,86.18
2022-10-01T20:38:54.986Z,86.09
2022-10-01T20:41:24.415Z,85.48
2022-10-01T20:43:56.664Z,87.68
2022-10-01T20:46:32.234Z,87.12
2022-10-01T20:49:04.057Z,87.04
2022-10-01T20:51:36.902Z,86.02
2022-10-01T20:54:11.141Z,87.32
2022-10-01T20:56:42.687Z,87.57
2022-10-01T20:59:17.891Z,89.25
2022-10-01T21:01:54.159Z,89.50
2022-10-01T21:04:29.346Z,88.44
2022-10-01T21:07:02.536Z,91.57
2022-10-01T21:09:33.810Z,89.50
2022-10-01T21:12:06.023Z,88.95
2022-10-01T21:14:37.174Z,88.34
2022-10-01T21:17:27.424Z,88.67
2022-10-01T21:20:12.613Z,87.58
2022-10-01T21:22:57.487Z,87.11
2022-10-01T21:25:33.524Z,87.63
2022-10-01T21:28:16.061Z,88.13
2022-10-01T21:30:58.385Z,87.54
2022-10-01T21:33:31.603Z,87.98
2022-10-01T21:36:13.862Z,87.52
2022-10-01T21:38:49.034Z,87.12
2022-10-01T21:41:36.461Z,87.63
2022-10-01T21:44:24.602Z,87.10
2022-10-01T21:47:00.258Z,88.22
2022-10-01T21:49:42.226Z,88.38
2022-10-01T21:52:25.068Z,89.27
2022-10-01T21:55:20.693Z,88.31
2022-10-01T21:58:03.102Z,88.05
2022-10-01T22:00:32.580Z,89.88
2022-10-01T22:03:19.021Z,90.41
2022-10-01T22:05:53.569Z,90.38
2022-10-01T22:08:37.035Z,91.24
2022-10-01T22:11:10.690Z,91.44
2022-10-01T22:13:43.288Z,91.18
2022-10-01T22:16:15.053Z,94.48
2022-10-01T22:18:47.283Z,95.31
2022-10-01T22:21:25.722Z,93.93
2022-10-01T22:24:02.477Z,95.46
2022-10-01T22:26:35.179Z,93.75
2022-10-01T22:29:08.161Z,93.36
2022-10-01T22:31:40.545Z,92.32
2022-10-01T22:34:15.615Z,92.89
2022-10-01T22:36:49.980Z,93.09
2022-10-01T22:39:23.474Z,92.38
2022-10-01T22:41:56.019Z,91.24
2022-10-01T22:44:24.394Z,90.56
2022-10-01T22:47:10.715Z,90.39
2022-10-01T22:49:50.434Z,90.70
2022-10-01T22:52:27.443Z,90.33
2022-10-01T22:55:08.477Z,90.74
2022-10-01T22:57:51.656Z,91.24
2022-10-01T23:00:21.219Z,91.64
2022-10-01T23:03:03.194Z,91.02
2022-10-01T23:05:50.532Z,89.88
2022-10-01T23:08:26.729Z,90.15
2022-10-01T23:11:07.339Z,90.28
2022-10-01T23:13:43.032Z,89.20
2022-10-01T23:16:21.443Z,88.54
2022-10-01T23:18:59.170Z,87.99
2022-10-01T23:21:36.044Z,87.34
2022-10-01T23:24:15.548Z,87.09
2022-10-01T23:26:58.208Z,87.13
2022-10-01T23:29:50.257Z,86.31
2022-10-01T23:32:36.535Z,86.77
2022-10-01T23:35:14.472Z,86.65
2022-10-01T23:38:05.433Z,86.54
2022-10-01T23:40:38.034Z,86.54
2022-10-01T23:43:12.559Z,86.14
2022-10-01T23:45:48.471Z,86.88
2022-10-01T23:48:22.347Z,87.37
2022-10-01T23:50:55.531Z,87.00
2022-10-01T23:53:28.854Z,87.01
2022-10-01T23:56:21.140Z,88.88
2022-10-01T23:58:55.404Z,90.40
